Time;durP1;ratioP1;P1;durP2;ratioP2;P2;SDS_P1;SDS_P2;PMS_P1;PMS_P2;Temp;Humidity;BMP_temperature;BMP_pressure;BME280_temperature;BME280_humidity;BME280_pressure;Samples;Min_cycle;Max_cycle;Signal;HPM_P1;HPM_P2
2021/12/08 00:00:23;;;;;;;;;;;0.50;99.90;;;;;;5069511;28;19926;-72
2021/12/08 00:02:50;;;;;;;;;;;0.40;99.90;;;;;;5074385;28;19921;-73
2021/12/08 00:05:19;;;;;;;;;;;0.50;99.90;;;;;;5068702;28;19927;-72
2021/12/08 00:07:47;;;;;;;;;;;0.50;99.90;;;;;;5083427;28;19920;-73
2021/12/08 00:10:27;;;;;;;;;;;0.50;99.90;;;;;;5079371;28;19921;-72
2021/12/08 00:13:03;;;;;;;;;;;0.50;99.90;;;;;;5067069;28;19928;-74
2021/12/08 00:15:30;;;;;;;;;;;0.50;99.90;;;;;;5066657;28;19917;-72
2021/12/08 00:17:57;;;;;;;;;;;0.60;99.90;;;;;;5066927;28;19921;-72
2021/12/08 00:20:24;;;;;;;;;;;0.60;99.90;;;;;;5073336;28;19959;-72
2021/12/08 00:22:52;;;;;;;;;;;0.60;99.90;;;;;;5086755;28;20231;-73
2021/12/08 00:25:18;;;;;;;;;;;0.60;99.90;;;;;;5086292;28;19921;-73
2021/12/08 00:27:45;;;;;;;;;;;0.60;99.90;;;;;;5086576;28;19921;-72
2021/12/08 00:30:12;;;;;;;;;;;0.70;99.90;;;;;;5082765;28;19921;-72
2021/12/08 00:32:38;;;;;;;;;;;0.70;99.90;;;;;;5079772;28;19927;-73
2021/12/08 00:35:06;;;;;;;;;;;0.70;99.90;;;;;;5070430;28;20111;-73
2021/12/08 00:37:33;;;;;;;;;;;0.70;99.90;;;;;;5083762;28;20334;-72
2021/12/08 00:40:00;;;;;;;;;;;0.70;99.90;;;;;;5066579;28;19925;-73
2021/12/08 00:42:27;;;;;;;;;;;0.70;99.90;;;;;;5061549;28;19921;-74
2021/12/08 00:44:54;;;;;;;;;;;0.70;99.90;;;;;;5051844;28;19932;-73
2021/12/08 00:47:20;;;;;;;;;;;0.80;99.90;;;;;;5086431;28;20093;-72
2021/12/08 00:49:47;;;;;;;;;;;0.80;99.90;;;;;;5084455;28;19920;-72
2021/12/08 00:52:14;;;;;;;;;;;0.80;99.90;;;;;;5066155;28;19921;-72
2021/12/08 00:54:41;;;;;;;;;;;0.80;99.90;;;;;;5066697;28;19971;-73
2021/12/08 00:57:10;;;;;;;;;;;0.80;99.90;;;;;;5083873;28;19920;-72
2021/12/08 00:59:36;;;;;;;;;;;0.90;99.90;;;;;;5065885;28;20208;-72
2021/12/08 01:02:03;;;;;;;;;;;0.90;99.90;;;;;;5078720;28;19920;-73
2021/12/08 01:04:30;;;;;;;;;;;0.90;99.90;;;;;;5046143;28;19930;-74
2021/12/08 01:06:56;;;;;;;;;;;0.90;99.90;;;;;;5085337;28;19943;-74
2021/12/08 01:09:23;;;;;;;;;;;1.00;99.90;;;;;;5085993;28;20116;-71
2021/12/08 01:11:50;;;;;;;;;;;0.90;99.90;;;;;;5066556;28;20000;-73
2021/12/08 01:14:18;;;;;;;;;;;1.00;99.90;;;;;;5065415;28;19925;-74
2021/12/08 01:16:45;;;;;;;;;;;1.00;99.90;;;;;;5083749;28;19921;-72
2021/12/08 01:19:12;;;;;;;;;;;1.00;99.90;;;;;;5085480;28;19924;-73
2021/12/08 01:21:38;;;;;;;;;;;1.00;99.90;;;;;;5067522;28;19920;-72
2021/12/08 01:24:05;;;;;;;;;;;1.00;99.90;;;;;;5065553;28;19927;-72
2021/12/08 01:26:32;;;;;;;;;;;1.00;99.90;;;;;;5066031;28;19921;-72
2021/12/08 01:28:58;;;;;;;;;;;1.00;99.90;;;;;;5065344;28;20322;-72
2021/12/08 01:31:27;;;;;;;;;;;1.00;99.90;;;;;;5075811;28;19927;-72
2021/12/08 01:33:54;;;;;;;;;;;1.00;99.90;;;;;;5067926;28;19975;-72
2021/12/08 01:36:20;;;;;;;;;;;1.00;99.90;;;;;;5065847;28;19921;-72
2021/12/08 01:38:47;;;;;;;;;;;1.00;99.90;;;;;;5065187;28;19928;-72
2021/12/08 01:41:14;;;;;;;;;;;1.00;99.90;;;;;;5079164;28;19920;-72
2021/12/08 01:43:43;;;;;;;;;;;1.00;99.90;;;;;;5069843;28;19959;-72
2021/12/08 01:46:09;;;;;;;;;;;1.00;99.90;;;;;;5065522;28;19925;-72
2021/12/08 01:48:39;;;;;;;;;;;1.10;99.90;;;;;;5064859;28;19916;-72
2021/12/08 01:51:06;;;;;;;;;;;1.00;99.90;;;;;;5077322;28;19921;-73
2021/12/08 01:53:33;;;;;;;;;;;1.10;99.90;;;;;;5085120;28;19920;-72
2021/12/08 01:56:00;;;;;;;;;;;1.00;99.90;;;;;;5073163;28;20085;-72
2021/12/08 01:58:28;;;;;;;;;;;1.00;99.90;;;;;;5064834;28;20209;-73
2021/12/08 02:00:56;;;;;;;;;;;1.00;99.90;;;;;;5070543;28;19960;-73
2021/12/08 02:03:24;;;;;;;;;;;1.10;99.90;;;;;;5064894;28;20368;-72
2021/12/08 02:05:52;;;;;;;;;;;1.10;99.90;;;;;;5064611;28;20204;-73
2021/12/08 02:08:19;;;;;;;;;;;1.10;99.90;;;;;;5064391;28;19921;-73
2021/12/08 02:10:46;;;;;;;;;;;1.10;99.90;;;;;;5064802;28;19920;-72
2021/12/08 02:13:13;;;;;;;;;;;1.10;99.90;;;;;;5064943;28;19921;-73
2021/12/08 02:15:40;;;;;;;;;;;1.10;99.90;;;;;;5064643;28;19921;-72
2021/12/08 02:18:08;;;;;;;;;;;1.20;99.90;;;;;;5064358;28;20208;-72
2021/12/08 02:20:34;;;;;;;;;;;1.20;99.90;;;;;;5072247;28;19920;-71
2021/12/08 02:23:03;;;;;;;;;;;1.20;99.90;;;;;;5084445;28;19928;-71
2021/12/08 02:25:30;;;;;;;;;;;1.20;99.90;;;;;;5080620;28;19927;-72
2021/12/08 02:27:58;;;;;;;;;;;1.20;99.90;;;;;;5064438;28;20219;-72
2021/12/08 02:30:32;;;;;;;;;;;1.20;99.90;;;;;;5065125;28;19920;-72
2021/12/08 02:47:03;;;;;;;;;;;1.20;99.90;;;;;;5076004;28;19923;-71
2021/12/08 02:49:30;;;;;;;;;;;1.20;99.90;;;;;;5064388;28;19921;-74
2021/12/08 02:51:57;;;;;;;;;;;1.20;99.90;;;;;;5063555;28;20239;-74
2021/12/08 02:54:24;;;;;;;;;;;1.20;99.90;;;;;;5064036;28;19921;-73
2021/12/08 02:56:53;;;;;;;;;;;1.20;99.90;;;;;;5064207;28;19927;-74
2021/12/08 02:59:20;;;;;;;;;;;1.30;99.90;;;;;;5063783;28;19924;-74
2021/12/08 03:01:47;;;;;;;;;;;1.20;99.90;;;;;;5068302;28;20220;-71
2021/12/08 03:04:13;;;;;;;;;;;1.20;99.90;;;;;;5063697;28;19921;-72
2021/12/08 03:06:40;;;;;;;;;;;1.20;99.90;;;;;;5080660;28;19927;-72
2021/12/08 03:09:07;;;;;;;;;;;1.20;99.90;;;;;;5083775;28;19920;-74
2021/12/08 03:11:36;;;;;;;;;;;1.20;99.90;;;;;;5083181;28;20222;-73
2021/12/08 03:14:08;;;;;;;;;;;1.30;99.90;;;;;;5064290;28;19924;-72
2021/12/08 03:16:35;;;;;;;;;;;1.30;99.90;;;;;;5063648;28;20135;-72
2021/12/08 03:19:02;;;;;;;;;;;1.20;99.90;;;;;;5066746;28;20222;-74
2021/12/08 03:21:32;;;;;;;;;;;1.30;99.90;;;;;;5078114;28;19960;-74
2021/12/08 03:24:11;;;;;;;;;;;1.30;99.90;;;;;;5057631;28;19924;-74
2021/12/08 03:26:47;;;;;;;;;;;1.30;99.90;;;;;;5077793;28;19956;-73
2021/12/08 03:29:27;;;;;;;;;;;1.30;99.90;;;;;;5083898;28;19920;-72
2021/12/08 03:31:55;;;;;;;;;;;1.30;99.90;;;;;;5064195;28;20093;-73
2021/12/08 03:34:25;;;;;;;;;;;1.20;99.90;;;;;;5061859;28;20272;-72
2021/12/08 03:36:53;;;;;;;;;;;1.30;99.90;;;;;;5063648;28;19928;-72
2021/12/08 03:39:19;;;;;;;;;;;1.30;99.90;;;;;;5063198;28;19959;-74
2021/12/08 03:41:47;;;;;;;;;;;1.30;99.90;;;;;;5063409;28;19922;-73
2021/12/08 03:44:14;;;;;;;;;;;1.20;99.90;;;;;;5063135;28;20090;-72
2021/12/08 03:46:42;;;;;;;;;;;1.30;99.90;;;;;;5067519;28;19928;-73
2021/12/08 03:49:11;;;;;;;;;;;1.20;99.90;;;;;;5067120;28;19988;-72
2021/12/08 03:51:38;;;;;;;;;;;1.20;99.90;;;;;;5084028;28;19921;-74
2021/12/08 03:54:05;;;;;;;;;;;1.20;99.90;;;;;;5067981;28;20262;-73
2021/12/08 03:56:32;;;;;;;;;;;1.10;99.90;;;;;;5082080;28;20113;-72
2021/12/08 03:59:00;;;;;;;;;;;1.10;99.90;;;;;;5077217;28;19927;-73
2021/12/08 04:01:26;;;;;;;;;;;1.10;99.90;;;;;;5067130;28;20220;-73
2021/12/08 04:03:55;;;;;;;;;;;1.00;99.90;;;;;;5067071;28;19921;-73
2021/12/08 04:06:31;;;;;;;;;;;1.00;99.90;;;;;;5081614;28;19924;-72
2021/12/08 04:09:01;;;;;;;;;;;1.00;99.90;;;;;;5085979;28;19921;-72
2021/12/08 04:11:27;;;;;;;;;;;1.00;99.90;;;;;;5082189;28;19920;-72
2021/12/08 04:13:56;;;;;;;;;;;0.90;99.90;;;;;;5077459;28;19921;-74
2021/12/08 04:16:26;;;;;;;;;;;0.90;99.90;;;;;;5067104;28;19987;-73
2021/12/08 04:18:52;;;;;;;;;;;0.90;99.90;;;;;;5067176;28;19927;-72
2021/12/08 04:21:19;;;;;;;;;;;0.90;99.90;;;;;;5066924;28;19921;-72
2021/12/08 04:23:46;;;;;;;;;;;0.90;99.90;;;;;;5066308;28;19927;-71
2021/12/08 04:26:17;;;;;;;;;;;0.80;99.90;;;;;;5078104;28;19921;-73
2021/12/08 04:28:44;;;;;;;;;;;0.80;99.90;;;;;;5086915;28;19927;-72
2021/12/08 04:31:12;;;;;;;;;;;0.80;99.90;;;;;;5086338;28;19921;-72
2021/12/08 04:33:40;;;;;;;;;;;0.80;99.90;;;;;;5081056;28;19921;-71
2021/12/08 04:36:10;;;;;;;;;;;0.80;99.90;;;;;;5066595;28;19920;-72
2021/12/08 04:38:40;;;;;;;;;;;0.80;99.90;;;;;;5066811;28;19921;-72
2021/12/08 04:41:10;;;;;;;;;;;0.70;99.90;;;;;;5066841;28;19920;-71
2021/12/08 04:43:44;;;;;;;;;;;0.70;99.90;;;;;;5066313;28;19921;-72
2021/12/08 04:46:19;;;;;;;;;;;0.70;99.90;;;;;;5066126;28;19963;-73
2021/12/08 04:49:10;;;;;;;;;;;0.70;99.90;;;;;;5066623;28;19925;-73
2021/12/08 04:51:46;;;;;;;;;;;0.70;99.90;;;;;;5066670;28;20120;-73
2021/12/08 05:02:59;;;;;;;;;;;0.60;99.90;;;;;;5099115;22;19934;-95
2021/12/08 05:05:48;;;;;;;;;;;0.60;99.90;;;;;;5079780;28;19920;-95
2021/12/08 05:08:18;;;;;;;;;;;1.10;99.90;;;;;;5079127;28;19927;-95
2021/12/08 05:10:45;;;;;;;;;;;0.60;99.90;;;;;;5080138;28;19921;-95
2021/12/08 05:13:13;;;;;;;;;;;0.50;99.90;;;;;;5079539;28;19947;-95
2021/12/08 05:15:42;;;;;;;;;;;1.00;99.90;;;;;;5079455;28;19909;-95
2021/12/08 05:18:11;;;;;;;;;;;0.70;99.90;;;;;;5087332;23;19952;-69
2021/12/08 05:20:41;;;;;;;;;;;0.70;99.90;;;;;;5073979;28;19921;-68
2021/12/08 05:23:10;;;;;;;;;;;0.70;99.90;;;;;;5096040;28;19921;-69
2021/12/08 05:25:38;;;;;;;;;;;0.60;99.90;;;;;;5093905;28;20107;-74
2021/12/08 05:28:06;;;;;;;;;;;0.60;99.90;;;;;;5106094;28;19920;-70
2021/12/08 05:30:36;;;;;;;;;;;0.60;99.90;;;;;;5105671;28;19926;-70
2021/12/08 05:33:03;;;;;;;;;;;0.60;99.90;;;;;;5105635;28;19942;-71
2021/12/08 05:35:30;;;;;;;;;;;0.60;99.90;;;;;;5097222;28;19923;-70
2021/12/08 05:37:58;;;;;;;;;;;0.60;99.90;;;;;;5105883;28;19926;-70
2021/12/08 05:40:29;;;;;;;;;;;0.60;99.90;;;;;;5105464;28;19942;-70
2021/12/08 05:42:55;;;;;;;;;;;0.60;99.90;;;;;;5101654;28;19924;-69
2021/12/08 05:45:22;;;;;;;;;;;0.50;99.90;;;;;;5100578;28;19920;-69
2021/12/08 05:47:50;;;;;;;;;;;0.50;99.90;;;;;;5105630;28;19926;-69
2021/12/08 05:50:18;;;;;;;;;;;0.60;99.90;;;;;;5105336;28;19927;-70
2021/12/08 05:52:45;;;;;;;;;;;0.60;99.90;;;;;;5105508;28;19983;-70
2021/12/08 05:55:13;;;;;;;;;;;0.50;99.90;;;;;;5094604;28;19995;-70
2021/12/08 05:57:41;;;;;;;;;;;0.60;99.90;;;;;;5105155;28;20208;-70
2021/12/08 06:00:10;;;;;;;;;;;0.60;99.90;;;;;;5104726;28;19920;-69
2021/12/08 06:02:37;;;;;;;;;;;0.60;99.90;;;;;;5098009;28;19935;-69
2021/12/08 06:05:05;;;;;;;;;;;0.60;99.90;;;;;;5088722;28;19943;-70
2021/12/08 06:07:31;;;;;;;;;;;0.60;99.90;;;;;;5104889;28;19924;-69
2021/12/08 06:09:59;;;;;;;;;;;0.60;99.90;;;;;;5105037;28;20233;-69
2021/12/08 06:12:28;;;;;;;;;;;0.60;99.90;;;;;;5105080;28;20233;-74
2021/12/08 06:14:55;;;;;;;;;;;0.60;99.90;;;;;;5095515;28;19932;-70
2021/12/08 06:17:23;;;;;;;;;;;0.70;99.90;;;;;;5104857;28;19920;-70
2021/12/08 06:19:50;;;;;;;;;;;0.60;99.90;;;;;;5104991;28;19920;-69
2021/12/08 06:22:18;;;;;;;;;;;0.60;99.90;;;;;;5104698;28;19924;-71
2021/12/08 06:24:45;;;;;;;;;;;0.60;99.90;;;;;;5100142;28;20231;-70
2021/12/08 06:27:12;;;;;;;;;;;0.60;99.90;;;;;;5105041;28;19924;-70
2021/12/08 06:29:40;;;;;;;;;;;0.60;99.90;;;;;;5104728;28;19920;-70
2021/12/08 06:32:07;;;;;;;;;;;0.50;99.90;;;;;;5104269;28;19920;-72
2021/12/08 06:34:35;;;;;;;;;;;0.50;99.90;;;;;;5094794;28;19920;-73
2021/12/08 06:37:03;;;;;;;;;;;0.50;99.90;;;;;;5090924;28;20097;-70
2021/12/08 06:39:32;;;;;;;;;;;0.50;99.90;;;;;;5092437;28;19920;-70
2021/12/08 06:42:00;;;;;;;;;;;0.50;99.90;;;;;;5104124;28;19927;-72
2021/12/08 06:44:30;;;;;;;;;;;0.50;99.90;;;;;;5090347;28;19921;-71
2021/12/08 06:46:58;;;;;;;;;;;0.50;99.90;;;;;;5084553;28;19927;-70
2021/12/08 06:49:25;;;;;;;;;;;0.60;99.90;;;;;;5084467;28;19943;-71
2021/12/08 06:51:53;;;;;;;;;;;0.50;99.90;;;;;;5084165;28;19921;-70
2021/12/08 06:54:21;;;;;;;;;;;0.60;99.90;;;;;;5083919;28;19934;-69
2021/12/08 06:56:53;;;;;;;;;;;0.60;99.90;;;;;;5083952;28;19921;-70
2021/12/08 06:59:22;;;;;;;;;;;0.60;99.90;;;;;;5084473;28;20111;-70
2021/12/08 07:01:57;;;;;;;;;;;0.60;99.90;;;;;;5083980;28;20119;-69
2021/12/08 07:04:30;;;;;;;;;;;0.70;99.90;;;;;;5100922;28;19928;-71
2021/12/08 07:07:08;;;;;;;;;;;0.70;99.90;;;;;;5092284;28;19944;-70
2021/12/08 07:09:37;;;;;;;;;;;0.70;99.90;;;;;;5093972;28;19920;-69
2021/12/08 07:12:06;;;;;;;;;;;0.70;99.90;;;;;;5104069;28;19926;-72
2021/12/08 07:14:34;;;;;;;;;;;0.70;99.90;;;;;;5103750;28;21208;-70
2021/12/08 07:17:03;;;;;;;;;;;0.70;99.90;;;;;;5103688;28;19920;-70
2021/12/08 07:19:35;;;;;;;;;;;0.60;99.90;;;;;;5103266;28;19962;-70
2021/12/08 07:22:05;;;;;;;;;;;0.70;99.90;;;;;;5101559;28;19920;-70
2021/12/08 07:24:34;;;;;;;;;;;0.70;99.90;;;;;;5083567;28;19943;-70
2021/12/08 07:27:03;;;;;;;;;;;0.70;99.90;;;;;;5083993;28;19920;-70
2021/12/08 07:29:33;;;;;;;;;;;0.70;99.90;;;;;;5083892;28;19928;-71
2021/12/08 07:32:02;;;;;;;;;;;0.70;99.90;;;;;;5096237;28;20200;-72
2021/12/08 07:34:28;;;;;;;;;;;0.80;99.90;;;;;;5100581;28;20215;-70
2021/12/08 07:36:59;;;;;;;;;;;0.80;99.90;;;;;;5083587;28;19952;-70
2021/12/08 07:39:28;;;;;;;;;;;0.80;99.90;;;;;;5082583;28;20099;-72
2021/12/08 07:41:58;;;;;;;;;;;0.80;99.90;;;;;;5082308;28;20208;-70
2021/12/08 07:44:25;;;;;;;;;;;0.80;99.90;;;;;;5085367;28;19924;-71
2021/12/08 07:46:53;;;;;;;;;;;0.80;99.90;;;;;;5103491;28;19920;-71
2021/12/08 07:49:22;;;;;;;;;;;0.90;99.90;;;;;;5103587;28;19924;-71
2021/12/08 07:51:49;;;;;;;;;;;0.90;99.90;;;;;;5103526;28;19920;-71
2021/12/08 07:54:19;;;;;;;;;;;0.90;99.90;;;;;;5083060;28;19920;-71
2021/12/08 07:56:47;;;;;;;;;;;0.90;99.90;;;;;;5082956;28;20115;-71
2021/12/08 07:59:15;;;;;;;;;;;0.90;99.90;;;;;;5083260;28;19927;-71
2021/12/08 08:01:43;;;;;;;;;;;0.90;99.90;;;;;;5081630;28;19920;-72
2021/12/08 08:04:11;;;;;;;;;;;0.90;99.90;;;;;;5094872;28;20218;-71
2021/12/08 08:06:40;;;;;;;;;;;0.90;99.90;;;;;;5102951;28;20106;-71
2021/12/08 08:09:08;;;;;;;;;;;0.90;99.90;;;;;;5103538;28;19920;-71
2021/12/08 08:11:41;;;;;;;;;;;0.90;99.90;;;;;;5103193;28;20003;-71
2021/12/08 08:14:09;;;;;;;;;;;0.90;99.90;;;;;;5097991;28;19927;-71
2021/12/08 08:16:37;;;;;;;;;;;1.00;99.90;;;;;;5102976;28;19943;-71
2021/12/08 08:19:09;;;;;;;;;;;1.00;99.90;;;;;;5103085;28;19920;-71
2021/12/08 08:21:37;;;;;;;;;;;1.00;99.90;;;;;;5101362;28;19927;-71
2021/12/08 08:24:04;;;;;;;;;;;1.00;99.90;;;;;;5100033;28;19926;-70
2021/12/08 08:26:31;;;;;;;;;;;1.00;99.90;;;;;;5102320;28;20230;-71
2021/12/08 08:28:59;;;;;;;;;;;1.00;99.90;;;;;;5101906;28;19920;-69
2021/12/08 08:31:28;;;;;;;;;;;1.00;99.90;;;;;;5104700;28;19952;-70
2021/12/08 08:33:54;;;;;;;;;;;1.10;99.90;;;;;;5105765;28;19926;-71
2021/12/08 08:36:23;;;;;;;;;;;1.00;99.90;;;;;;5106807;28;19926;-71
2021/12/08 08:38:52;;;;;;;;;;;1.00;99.90;;;;;;5105994;28;19983;-70
2021/12/08 08:41:20;;;;;;;;;;;1.00;99.90;;;;;;5092746;28;19920;-71
2021/12/08 08:43:48;;;;;;;;;;;1.00;99.90;;;;;;5085346;28;20246;-72
2021/12/08 08:46:18;;;;;;;;;;;1.00;99.90;;;;;;5085184;28;19983;-72
2021/12/08 08:48:48;;;;;;;;;;;1.00;99.90;;;;;;5089240;28;19920;-71
2021/12/08 08:51:16;;;;;;;;;;;1.10;99.90;;;;;;5102561;28;19920;-71
2021/12/08 08:53:47;;;;;;;;;;;1.10;99.90;;;;;;5105767;28;19920;-71
2021/12/08 08:56:15;;;;;;;;;;;1.20;99.90;;;;;;5091269;28;20225;-71
2021/12/08 08:58:44;;;;;;;;;;;1.10;99.90;;;;;;5085898;28;19921;-71
2021/12/08 09:01:13;;;;;;;;;;;1.20;99.90;;;;;;5085899;28;19921;-72
2021/12/08 09:03:43;;;;;;;;;;;1.20;99.90;;;;;;5085300;28;19921;-71
2021/12/08 09:06:12;;;;;;;;;;;1.30;99.90;;;;;;5097209;28;19921;-71
2021/12/08 09:08:38;;;;;;;;;;;1.30;99.90;;;;;;5086070;28;19927;-71
2021/12/08 09:11:09;;;;;;;;;;;1.30;99.90;;;;;;5097630;28;19920;-71
2021/12/08 09:13:39;;;;;;;;;;;1.30;99.90;;;;;;5105585;28;19927;-71
2021/12/08 09:16:07;;;;;;;;;;;1.30;99.90;;;;;;5106066;28;19958;-71
2021/12/08 09:18:41;;;;;;;;;;;1.30;99.90;;;;;;5105884;28;19979;-71
2021/12/08 09:21:16;;;;;;;;;;;1.30;99.90;;;;;;5105743;28;19920;-71
2021/12/08 09:23:46;;;;;;;;;;;1.30;99.90;;;;;;5099707;28;19927;-71
2021/12/08 09:26:16;;;;;;;;;;;1.30;99.90;;;;;;5105697;28;19920;-72
2021/12/08 09:28:44;;;;;;;;;;;1.30;99.90;;;;;;5105924;28;19924;-71
2021/12/08 09:31:12;;;;;;;;;;;1.40;99.90;;;;;;5105469;28;19926;-71
2021/12/08 09:33:44;;;;;;;;;;;1.40;99.90;;;;;;5100321;28;19920;-71
2021/12/08 09:36:13;;;;;;;;;;;1.40;99.90;;;;;;5105859;28;19920;-72
2021/12/08 09:38:41;;;;;;;;;;;1.40;99.90;;;;;;5105472;28;19920;-71
2021/12/08 09:41:11;;;;;;;;;;;1.40;99.90;;;;;;5105570;28;19924;-71
2021/12/08 09:43:41;;;;;;;;;;;1.40;99.90;;;;;;5104167;28;19971;-71
2021/12/08 09:46:08;;;;;;;;;;;1.50;99.90;;;;;;5100188;28;19920;-71
2021/12/08 09:48:37;;;;;;;;;;;1.40;99.90;;;;;;5085275;28;19928;-71
2021/12/08 09:51:04;;;;;;;;;;;1.50;99.90;;;;;;5085029;28;19920;-71
2021/12/08 09:53:34;;;;;;;;;;;1.50;99.90;;;;;;5089834;28;19927;-72
2021/12/08 09:56:01;;;;;;;;;;;1.50;99.90;;;;;;5105288;28;20130;-71
2021/12/08 09:58:27;;;;;;;;;;;1.50;99.90;;;;;;5105322;28;19920;-71
2021/12/08 10:00:57;;;;;;;;;;;1.50;99.90;;;;;;5104882;28;19928;-71
2021/12/08 10:03:23;;;;;;;;;;;1.50;99.90;;;;;;5100707;28;19920;-72
2021/12/08 10:05:51;;;;;;;;;;;1.60;99.90;;;;;;5102861;28;20215;-71
2021/12/08 10:08:18;;;;;;;;;;;1.60;99.90;;;;;;5104921;28;20211;-72
2021/12/08 10:10:46;;;;;;;;;;;1.50;99.90;;;;;;5105234;28;19920;-70
2021/12/08 10:13:14;;;;;;;;;;;1.60;99.90;;;;;;5099483;28;19936;-71
2021/12/08 10:15:41;;;;;;;;;;;1.50;99.90;;;;;;5104680;28;19920;-70
2021/12/08 10:18:08;;;;;;;;;;;1.50;99.90;;;;;;5104739;28;19991;-71
2021/12/08 10:20:37;;;;;;;;;;;1.40;99.90;;;;;;5104963;28;19962;-72
2021/12/08 10:23:12;;;;;;;;;;;1.40;99.90;;;;;;5104559;28;19919;-71
2021/12/08 10:25:40;;;;;;;;;;;1.40;99.90;;;;;;5099472;28;20203;-70
2021/12/08 10:28:11;;;;;;;;;;;1.50;99.90;;;;;;5104806;28;20112;-72
2021/12/08 10:30:41;;;;;;;;;;;1.50;99.90;;;;;;5104583;28;19920;-71
2021/12/08 10:33:12;;;;;;;;;;;1.60;99.90;;;;;;5099503;28;19952;-71
2021/12/08 10:35:49;;;;;;;;;;;1.60;99.90;;;;;;5104137;28;19920;-71
2021/12/08 10:38:16;;;;;;;;;;;1.60;99.90;;;;;;5104751;28;19926;-71
2021/12/08 10:40:56;;;;;;;;;;;1.60;99.90;;;;;;5104672;28;19920;-72
2021/12/08 10:43:24;;;;;;;;;;;1.60;99.90;;;;;;5104015;28;19920;-71
2021/12/08 10:45:59;;;;;;;;;;;1.70;99.90;;;;;;5098937;28;19920;-71
2021/12/08 10:48:33;;;;;;;;;;;1.70;99.90;;;;;;5104336;28;19920;-71
2021/12/08 10:56:33;;;;;;;;;;;1.70;99.90;;;;;;5104083;28;19942;-72
2021/12/08 10:59:01;;;;;;;;;;;1.70;99.90;;;;;;5104386;28;20115;-71
2021/12/08 11:01:28;;;;;;;;;;;1.60;99.90;;;;;;5122621;23;19926;-72
2021/12/08 11:03:59;;;;;;;;;;;1.60;99.90;;;;;;5049035;28;19921;-72
2021/12/08 11:06:29;;;;;;;;;;;1.70;99.90;;;;;;5044944;28;19921;-71
2021/12/08 11:08:56;;;;;;;;;;;1.60;99.90;;;;;;5044400;28;19927;-72
2021/12/08 11:11:25;;;;;;;;;;;1.70;99.90;;;;;;5044097;28;19959;-72
2021/12/08 11:13:55;;;;;;;;;;;1.70;99.90;;;;;;5059964;28;19931;-72
2021/12/08 11:16:25;;;;;;;;;;;1.70;99.90;;;;;;5063227;28;19921;-73
2021/12/08 11:18:52;;;;;;;;;;;1.70;99.90;;;;;;5058557;28;19928;-72
2021/12/08 11:21:21;;;;;;;;;;;1.70;99.90;;;;;;5063954;28;19927;-72
2021/12/08 11:23:49;;;;;;;;;;;1.80;99.90;;;;;;5062463;28;19921;-72
2021/12/08 11:26:18;;;;;;;;;;;1.80;99.90;;;;;;5062663;28;20218;-72
2021/12/08 11:28:44;;;;;;;;;;;1.80;99.90;;;;;;5057110;28;19921;-72
2021/12/08 11:31:12;;;;;;;;;;;1.80;99.90;;;;;;5064092;28;19921;-73
2021/12/08 11:33:43;;;;;;;;;;;1.80;99.90;;;;;;5057103;28;20241;-72
2021/12/08 11:36:11;;;;;;;;;;;1.80;99.90;;;;;;5050273;28;20211;-72
2021/12/08 11:38:38;;;;;;;;;;;1.80;99.90;;;;;;5063763;28;19921;-71
2021/12/08 11:41:10;;;;;;;;;;;1.80;99.90;;;;;;5063768;28;19921;-71
2021/12/08 11:43:36;;;;;;;;;;;1.90;99.90;;;;;;5061577;28;19927;-72
2021/12/08 11:46:24;;;;;;;;;;;1.90;99.90;;;;;;5046958;28;19929;-72
2021/12/08 11:49:03;;;;;;;;;;;1.90;99.90;;;;;;5037110;28;19944;-72
2021/12/08 11:51:32;;;;;;;;;;;1.90;99.90;;;;;;5043657;28;19921;-72
2021/12/08 11:53:59;;;;;;;;;;;1.90;99.90;;;;;;5053914;28;19920;-74
2021/12/08 11:56:37;;;;;;;;;;;1.90;99.90;;;;;;5063780;28;19984;-72
2021/12/08 11:59:05;;;;;;;;;;;1.90;99.90;;;;;;5062052;28;19933;-72
2021/12/08 12:01:33;;;;;;;;;;;1.90;99.90;;;;;;5064543;28;19921;-71
2021/12/08 12:04:02;;;;;;;;;;;2.00;99.90;;;;;;5060508;28;19921;-71
2021/12/08 12:06:29;;;;;;;;;;;2.00;99.90;;;;;;5063417;28;19956;-72
2021/12/08 12:08:58;;;;;;;;;;;2.00;99.90;;;;;;5063701;28;19929;-72
2021/12/08 12:11:26;;;;;;;;;;;2.00;99.90;;;;;;5063964;28;20240;-72
2021/12/08 12:13:53;;;;;;;;;;;2.00;99.90;;;;;;5060803;28;19929;-71
2021/12/08 12:16:20;;;;;;;;;;;2.00;99.90;;;;;;5063695;28;19935;-72
2021/12/08 12:18:47;;;;;;;;;;;2.00;99.90;;;;;;5067032;28;19928;-71
2021/12/08 12:21:22;;;;;;;;;;;2.00;99.90;;;;;;5068055;28;19984;-72
2021/12/08 12:23:57;;;;;;;;;;;2.00;99.90;;;;;;5065533;28;20250;-72
2021/12/08 12:26:29;;;;;;;;;;;1.90;99.90;;;;;;5066270;28;19927;-71
2021/12/08 12:29:05;;;;;;;;;;;1.90;99.90;;;;;;5066164;28;20266;-72
2021/12/08 12:31:39;;;;;;;;;;;1.90;99.90;;;;;;5049981;28;19927;-71
2021/12/08 12:34:20;;;;;;;;;;;1.90;99.90;;;;;;5066785;28;19923;-72
2021/12/08 12:36:48;;;;;;;;;;;1.90;99.90;;;;;;5049806;28;19932;-72
2021/12/08 12:39:15;;;;;;;;;;;1.90;99.90;;;;;;5075102;28;19920;-72
2021/12/08 12:41:42;;;;;;;;;;;1.80;99.90;;;;;;5086224;28;20104;-72
2021/12/08 12:44:24;;;;;;;;;;;1.80;99.90;;;;;;5073675;28;19925;-71
2021/12/08 12:47:11;;;;;;;;;;;1.70;99.90;;;;;;5066809;28;19927;-72
2021/12/08 12:49:39;;;;;;;;;;;1.80;99.90;;;;;;5066741;28;19921;-72
2021/12/08 12:52:08;;;;;;;;;;;1.80;99.90;;;;;;5066352;28;19927;-71
2021/12/08 12:54:34;;;;;;;;;;;1.70;99.90;;;;;;5066379;28;19952;-72
2021/12/08 12:57:03;;;;;;;;;;;1.70;99.90;;;;;;5066576;28;19920;-71
2021/12/08 12:59:38;;;;;;;;;;;1.70;99.90;;;;;;5066248;28;19924;-71
2021/12/08 13:02:06;;;;;;;;;;;1.80;99.90;;;;;;5066270;28;19927;-73
2021/12/08 13:04:35;;;;;;;;;;;1.80;99.90;;;;;;5065915;28;19979;-71
2021/12/08 13:07:02;;;;;;;;;;;1.70;99.90;;;;;;5066553;28;19927;-71
2021/12/08 13:09:47;;;;;;;;;;;1.80;99.90;;;;;;5065820;28;19927;-72
2021/12/08 13:12:16;;;;;;;;;;;1.80;99.90;;;;;;5066031;28;19920;-71
2021/12/08 13:14:43;;;;;;;;;;;1.80;99.90;;;;;;5065653;28;19959;-71
2021/12/08 13:17:12;;;;;;;;;;;1.80;99.90;;;;;;5065216;28;20139;-70
2021/12/08 13:19:39;;;;;;;;;;;1.80;99.90;;;;;;5064437;28;20227;-70
2021/12/08 13:22:05;;;;;;;;;;;1.80;99.90;;;;;;5065493;28;19920;-70
2021/12/08 13:24:39;;;;;;;;;;;1.90;99.90;;;;;;5056026;28;19921;-69
2021/12/08 13:27:11;;;;;;;;;;;1.90;99.90;;;;;;5045882;28;19957;-70
2021/12/08 13:29:40;;;;;;;;;;;1.90;99.90;;;;;;5045398;28;19921;-70
2021/12/08 13:32:13;;;;;;;;;;;1.90;99.90;;;;;;5045452;28;19921;-70
2021/12/08 13:34:41;;;;;;;;;;;2.00;99.90;;;;;;5043874;28;19927;-70
2021/12/08 13:37:15;;;;;;;;;;;2.00;99.90;;;;;;5044307;28;19921;-70
2021/12/08 13:39:43;;;;;;;;;;;1.90;99.90;;;;;;5058667;28;20200;-70
2021/12/08 13:42:12;;;;;;;;;;;1.90;99.90;;;;;;5062232;28;19932;-70
2021/12/08 13:44:39;;;;;;;;;;;2.00;99.90;;;;;;5060760;28;19967;-70
2021/12/08 13:47:07;;;;;;;;;;;1.90;99.90;;;;;;5063923;28;19921;-70
2021/12/08 13:49:36;;;;;;;;;;;1.90;99.90;;;;;;5063470;28;19927;-70
2021/12/08 13:52:16;;;;;;;;;;;1.90;99.90;;;;;;5069172;28;19929;-71
2021/12/08 13:54:43;;;;;;;;;;;1.80;99.90;;;;;;5052701;28;19921;-70
2021/12/08 13:57:25;;;;;;;;;;;1.80;99.90;;;;;;5064576;28;19921;-69
2021/12/08 13:59:53;;;;;;;;;;;1.80;99.90;;;;;;5064411;28;19921;-70
2021/12/08 14:02:21;;;;;;;;;;;1.80;99.90;;;;;;5064413;28;20273;-72
2021/12/08 14:04:48;;;;;;;;;;;1.90;99.90;;;;;;5060666;28;19921;-71
2021/12/08 14:07:18;;;;;;;;;;;1.90;99.90;;;;;;5051732;28;19927;-72
2021/12/08 14:09:44;;;;;;;;;;;1.80;99.90;;;;;;5068873;28;19921;-72
2021/12/08 14:12:11;;;;;;;;;;;1.80;99.90;;;;;;5064311;28;20124;-69
2021/12/08 14:14:38;;;;;;;;;;;1.80;99.90;;;;;;5056045;28;19928;-70
2021/12/08 14:17:06;;;;;;;;;;;1.80;99.90;;;;;;5047431;28;19936;-72
2021/12/08 14:19:37;;;;;;;;;;;1.90;99.90;;;;;;5064646;28;19937;-70
2021/12/08 14:22:04;;;;;;;;;;;1.80;99.90;;;;;;5063624;28;19927;-70
2021/12/08 14:24:30;;;;;;;;;;;1.70;99.90;;;;;;5063541;28;20120;-69
2021/12/08 14:26:57;;;;;;;;;;;1.70;99.90;;;;;;5064566;28;19921;-72
2021/12/08 14:29:23;;;;;;;;;;;1.70;99.90;;;;;;5063543;28;20241;-72
2021/12/08 14:31:51;;;;;;;;;;;1.70;99.90;;;;;;5064588;28;20205;-75
2021/12/08 14:34:20;;;;;;;;;;;1.60;99.90;;;;;;5063524;28;20208;-72
2021/12/08 14:36:48;;;;;;;;;;;1.60;99.90;;;;;;5064287;28;20263;-72
2021/12/08 14:39:25;;;;;;;;;;;1.60;99.90;;;;;;5064542;28;19920;-72
2021/12/08 14:41:54;;;;;;;;;;;1.60;99.90;;;;;;5064243;28;19953;-72
2021/12/08 14:44:21;;;;;;;;;;;1.60;99.90;;;;;;5063844;28;19952;-72
2021/12/08 14:46:49;;;;;;;;;;;1.50;99.90;;;;;;5064020;28;19920;-72
2021/12/08 14:49:18;;;;;;;;;;;1.60;99.90;;;;;;5064291;28;19983;-72
2021/12/08 14:51:47;;;;;;;;;;;1.60;99.90;;;;;;5063582;28;19940;-72
2021/12/08 14:54:19;;;;;;;;;;;1.50;99.90;;;;;;5067974;28;20211;-72
2021/12/08 14:56:59;;;;;;;;;;;1.60;99.90;;;;;;5055250;28;19921;-72
2021/12/08 14:59:26;;;;;;;;;;;1.60;99.90;;;;;;5064073;28;19925;-70
2021/12/08 15:01:52;;;;;;;;;;;1.60;99.90;;;;;;5063417;28;19927;-72
2021/12/08 15:04:19;;;;;;;;;;;1.60;99.90;;;;;;5063271;28;19921;-73
2021/12/08 15:06:53;;;;;;;;;;;1.60;99.90;;;;;;5060241;28;19921;-73
2021/12/08 15:09:19;;;;;;;;;;;1.60;99.90;;;;;;5064207;28;19927;-75